Time;durP1;ratioP1;P1;durP2;ratioP2;P2;SDS_P1;SDS_P2;PMS_P1;PMS_P2;Temp;Humidity;BMP_temperature;BMP_pressure;BME280_temperature;BME280_humidity;BME280_pressure;Samples;Min_cycle;Max_cycle;Signal;HPM_P1;HPM_P2
2023/07/06 00:00:31;;;;;;;;;5.00;4.00;;;;;;;;5054638;28;38273;-75
2023/07/06 00:02:56;;;;;;;;;5.00;5.00;;;;;;;;5058590;28;34414;-75
2023/07/06 00:05:22;;;;;;;;;3.00;3.00;;;;;;;;5054159;28;29783;-74
2023/07/06 00:07:47;;;;;;;;;4.00;3.75;;;;;;;;5054208;28;29856;-75
2023/07/06 00:10:13;;;;;;;;;3.75;3.75;;;;;;;;5048014;28;28985;-74
2023/07/06 00:12:38;;;;;;;;;5.25;4.00;;;;;;;;5042126;28;45320;-76
2023/07/06 00:15:03;;;;;;;;;4.50;4.00;;;;;;;;5034069;28;45411;-75
2023/07/06 00:17:29;;;;;;;;;5.50;5.00;;;;;;;;5033253;28;48342;-75
2023/07/06 00:19:54;;;;;;;;;3.00;2.75;;;;;;;;5044193;28;45978;-76
2023/07/06 00:22:19;;;;;;;;;3.00;3.00;;;;;;;;5042715;28;45301;-74
2023/07/06 00:24:46;;;;;;;;;5.75;3.25;;;;;;;;5049127;28;45511;-74
2023/07/06 00:27:15;;;;;;;;;2.75;2.75;;;;;;;;5039045;28;45471;-74
2023/07/06 00:29:56;;;;;;;;;6.50;5.50;;;;;;;;5048337;28;45507;-74
2023/07/06 00:32:27;;;;;;;;;4.25;4.00;;;;;;;;5048508;28;45377;-75
2023/07/06 00:34:53;;;;;;;;;4.25;4.00;;;;;;;;5038377;28;45379;-75
2023/07/06 00:37:21;;;;;;;;;2.00;2.00;;;;;;;;5051070;28;46339;-75
2023/07/06 00:39:46;;;;;;;;;3.00;2.00;;;;;;;;5043704;28;45410;-74
2023/07/06 00:42:15;;;;;;;;;4.25;3.75;;;;;;;;5042352;28;45451;-75
2023/07/06 00:44:52;;;;;;;;;3.50;3.50;;;;;;;;5047117;28;45440;-75
2023/07/06 00:47:19;;;;;;;;;2.75;2.75;;;;;;;;5025039;28;46237;-75
2023/07/06 00:49:45;;;;;;;;;6.00;4.25;;;;;;;;5047699;28;45443;-74
2023/07/06 00:52:11;;;;;;;;;2.25;2.00;;;;;;;;5045082;28;45681;-75
2023/07/06 00:54:37;;;;;;;;;4.50;4.00;;;;;;;;5039659;28;45309;-75
2023/07/06 00:57:03;;;;;;;;;5.50;5.50;;;;;;;;5052021;28;46077;-75
2023/07/06 00:59:29;;;;;;;;;3.25;3.25;;;;;;;;5040630;28;45487;-75
2023/07/06 01:01:56;;;;;;;;;7.00;6.25;;;;;;;;5048966;28;45378;-75
2023/07/06 01:04:21;;;;;;;;;7.00;4.00;;;;;;;;5046779;28;45423;-75
2023/07/06 01:06:49;;;;;;;;;6.25;4.50;;;;;;;;5038375;28;45333;-76
2023/07/06 01:09:15;;;;;;;;;7.00;3.50;;;;;;;;5022581;28;45353;-75
2023/07/06 01:11:43;;;;;;;;;5.00;3.75;;;;;;;;5047556;28;45261;-76
2023/07/06 01:14:12;;;;;;;;;3.00;3.00;;;;;;;;5048617;28;45411;-75
2023/07/06 01:17:03;;;;;;;;;3.75;3.75;;;;;;;;5054294;28;32154;-75
2023/07/06 01:19:31;;;;;;;;;7.25;4.25;;;;;;;;5041482;28;29350;-75
2023/07/06 01:22:05;;;;;;;;;4.00;4.00;;;;;;;;4621520;28;2067141;-74
2023/07/06 01:24:45;;;;;;;;;6.00;5.25;;;;;;;;4962598;28;827649;-75
2023/07/06 01:27:24;;;;;;;;;6.00;5.50;;;;;;;;5038105;28;45331;-75
2023/07/06 01:30:08;;;;;;;;;3.25;3.25;;;;;;;;5045594;28;45406;-75
2023/07/06 01:32:38;;;;;;;;;4.00;4.00;;;;;;;;5049383;28;45308;-75
2023/07/06 01:35:13;;;;;;;;;6.75;6.75;;;;;;;;5035922;28;45544;-75
2023/07/06 01:37:43;;;;;;;;;5.50;5.50;;;;;;;;5053956;28;46158;-74
2023/07/06 01:40:12;;;;;;;;;6.50;6.25;;;;;;;;5052070;28;45452;-74
2023/07/06 01:42:40;;;;;;;;;4.50;4.50;;;;;;;;5046013;28;45401;-76
2023/07/06 01:45:16;;;;;;;;;6.00;3.75;;;;;;;;5057260;28;45351;-74
2023/07/06 01:47:52;;;;;;;;;5.00;3.75;;;;;;;;5048486;28;45395;-74
2023/07/06 01:50:19;;;;;;;;;3.50;3.50;;;;;;;;5048755;28;45457;-74
2023/07/06 01:52:44;;;;;;;;;4.50;4.50;;;;;;;;5057656;28;45414;-74
2023/07/06 01:55:25;;;;;;;;;4.75;2.75;;;;;;;;5038926;28;45605;-75
2023/07/06 01:57:54;;;;;;;;;5.75;4.50;;;;;;;;5049805;28;47284;-76
2023/07/06 02:00:21;;;;;;;;;4.50;2.75;;;;;;;;5048060;28;45470;-75
2023/07/06 02:02:52;;;;;;;;;2.00;2.00;;;;;;;;5057383;28;45386;-76
2023/07/06 02:05:17;;;;;;;;;3.25;3.25;;;;;;;;5027902;28;45425;-75
2023/07/06 02:07:43;;;;;;;;;4.00;4.00;;;;;;;;5052711;28;47247;-74
2023/07/06 02:10:12;;;;;;;;;4.00;3.75;;;;;;;;5051815;28;45394;-75
2023/07/06 02:12:38;;;;;;;;;3.00;3.00;;;;;;;;5044118;28;45280;-74
2023/07/06 02:15:03;;;;;;;;;5.00;3.75;;;;;;;;5052046;28;45325;-75
2023/07/06 02:17:28;;;;;;;;;2.75;2.75;;;;;;;;5040953;28;47352;-75
2023/07/06 02:19:54;;;;;;;;;3.50;3.50;;;;;;;;5041216;28;45376;-75
2023/07/06 02:22:21;;;;;;;;;2.50;2.50;;;;;;;;5041015;28;45368;-75
2023/07/06 02:24:46;;;;;;;;;2.00;2.00;;;;;;;;5041310;28;45296;-75
2023/07/06 02:27:11;;;;;;;;;7.50;4.75;;;;;;;;5041060;28;45459;-73
2023/07/06 02:29:36;;;;;;;;;3.50;3.50;;;;;;;;5041502;28;45443;-75
2023/07/06 02:32:02;;;;;;;;;2.50;2.50;;;;;;;;5041173;28;45646;-75
2023/07/06 02:34:28;;;;;;;;;2.00;2.00;;;;;;;;5039789;28;45422;-75
2023/07/06 02:36:56;;;;;;;;;3.00;3.00;;;;;;;;5039700;28;46305;-74
2023/07/06 02:39:24;;;;;;;;;2.50;2.50;;;;;;;;5041069;28;45429;-76
2023/07/06 02:41:53;;;;;;;;;3.75;3.75;;;;;;;;5040895;28;45328;-75
2023/07/06 02:44:19;;;;;;;;;4.25;4.25;;;;;;;;5041110;28;45415;-75
2023/07/06 02:46:45;;;;;;;;;7.00;5.00;;;;;;;;5040482;28;45413;-76
2023/07/06 02:49:10;;;;;;;;;6.25;4.75;;;;;;;;5036604;28;45329;-76
2023/07/06 02:51:35;;;;;;;;;5.75;5.75;;;;;;;;5037461;28;45475;-76
2023/07/06 02:54:00;;;;;;;;;3.25;3.00;;;;;;;;5047938;28;45313;-75
2023/07/06 02:56:26;;;;;;;;;4.25;3.50;;;;;;;;5037449;28;46362;-75
2023/07/06 02:58:52;;;;;;;;;4.50;4.50;;;;;;;;5037235;28;45351;-76
2023/07/06 03:01:18;;;;;;;;;1.50;1.50;;;;;;;;5037470;28;45289;-75
2023/07/06 03:03:43;;;;;;;;;6.00;3.75;;;;;;;;5037707;28;45199;-76
2023/07/06 03:06:08;;;;;;;;;4.75;4.75;;;;;;;;5036998;28;45307;-76
2023/07/06 03:08:34;;;;;;;;;4.25;4.25;;;;;;;;5037362;28;45453;-76
2023/07/06 03:10:59;;;;;;;;;4.75;4.75;;;;;;;;5037637;28;45482;-76
2023/07/06 03:13:28;;;;;;;;;7.00;4.50;;;;;;;;5036914;28;45554;-76
2023/07/06 03:15:56;;;;;;;;;5.75;5.75;;;;;;;;5037928;28;45454;-76
2023/07/06 03:18:22;;;;;;;;;2.00;2.00;;;;;;;;5037031;28;45454;-76
2023/07/06 03:20:50;;;;;;;;;5.25;5.25;;;;;;;;5037027;28;45517;-75
2023/07/06 03:23:18;;;;;;;;;4.00;4.00;;;;;;;;5037296;28;45419;-76
2023/07/06 03:25:43;;;;;;;;;7.25;4.50;;;;;;;;5036954;28;47502;-76
2023/07/06 03:28:08;;;;;;;;;4.00;4.00;;;;;;;;5037330;28;45446;-76
2023/07/06 03:30:33;;;;;;;;;4.50;4.50;;;;;;;;5036853;28;45345;-76
2023/07/06 03:33:01;;;;;;;;;4.75;4.75;;;;;;;;5036923;28;45359;-76
2023/07/06 03:35:28;;;;;;;;;3.75;3.75;;;;;;;;5036751;28;45510;-75
2023/07/06 03:37:58;;;;;;;;;2.50;2.50;;;;;;;;5036832;28;45324;-74
2023/07/06 03:40:24;;;;;;;;;6.50;6.50;;;;;;;;5036671;28;45809;-74
2023/07/06 03:42:50;;;;;;;;;3.75;3.75;;;;;;;;5037626;28;45470;-74
2023/07/06 03:45:16;;;;;;;;;3.25;3.25;;;;;;;;5036596;28;45605;-74
2023/07/06 03:47:42;;;;;;;;;5.75;4.00;;;;;;;;5040140;28;45375;-75
2023/07/06 03:50:09;;;;;;;;;3.50;3.50;;;;;;;;5036639;28;45368;-75
2023/07/06 03:52:37;;;;;;;;;4.50;4.25;;;;;;;;5036531;28;45380;-75
2023/07/06 03:55:03;;;;;;;;;5.00;5.00;;;;;;;;5036286;28;46502;-71
2023/07/06 03:57:30;;;;;;;;;5.00;2.75;;;;;;;;5036448;28;45423;-75
2023/07/06 03:59:56;;;;;;;;;3.50;2.75;;;;;;;;5036646;28;45292;-74
2023/07/06 04:02:21;;;;;;;;;6.00;4.00;;;;;;;;5036863;28;45313;-75
2023/07/06 04:04:46;;;;;;;;;6.00;4.25;;;;;;;;5036290;28;45378;-75
2023/07/06 04:07:12;;;;;;;;;4.50;4.50;;;;;;;;5036238;28;45529;-75
2023/07/06 04:09:38;;;;;;;;;4.25;3.25;;;;;;;;5035231;28;45277;-75
2023/07/06 04:12:04;;;;;;;;;2.75;2.75;;;;;;;;5036377;28;45388;-75
2023/07/06 04:14:29;;;;;;;;;7.25;7.00;;;;;;;;5036172;28;45419;-75
2023/07/06 04:16:56;;;;;;;;;4.50;4.50;;;;;;;;5035968;28;45517;-74
2023/07/06 04:19:21;;;;;;;;;7.25;5.50;;;;;;;;5034822;28;45413;-74
2023/07/06 04:21:47;;;;;;;;;4.00;4.00;;;;;;;;5036381;28;45297;-74
2023/07/06 04:24:12;;;;;;;;;3.50;3.25;;;;;;;;5036094;28;46453;-75
2023/07/06 04:26:39;;;;;;;;;4.75;4.75;;;;;;;;5036002;28;45437;-74
2023/07/06 04:29:09;;;;;;;;;6.75;4.75;;;;;;;;5034865;28;45486;-74
2023/07/06 04:31:34;;;;;;;;;7.25;5.50;;;;;;;;5035693;28;45378;-77
2023/07/06 04:34:00;;;;;;;;;5.00;4.75;;;;;;;;5035892;28;45465;-76
2023/07/06 04:36:25;;;;;;;;;6.00;5.25;;;;;;;;5036028;28;45477;-75
2023/07/06 04:38:50;;;;;;;;;4.00;4.00;;;;;;;;5036073;28;45473;-76
2023/07/06 04:41:15;;;;;;;;;4.50;4.00;;;;;;;;5036382;28;45321;-76
2023/07/06 04:43:40;;;;;;;;;5.50;5.50;;;;;;;;5036095;28;45407;-76
2023/07/06 04:46:06;;;;;;;;;9.50;6.50;;;;;;;;5035750;28;45366;-75
2023/07/06 04:48:34;;;;;;;;;4.75;4.50;;;;;;;;5036440;28;45235;-77
2023/07/06 04:50:59;;;;;;;;;7.00;6.25;;;;;;;;5035224;28;45431;-76
2023/07/06 04:53:25;;;;;;;;;4.75;4.75;;;;;;;;5036490;28;45327;-73
2023/07/06 04:55:50;;;;;;;;;9.25;7.75;;;;;;;;5035806;28;45393;-73
2023/07/06 04:58:16;;;;;;;;;5.75;5.25;;;;;;;;5035839;28;45362;-73
2023/07/06 05:00:45;;;;;;;;;7.50;7.50;;;;;;;;5035548;28;45332;-71
2023/07/06 05:03:10;;;;;;;;;9.00;9.00;;;;;;;;5035571;28;46998;-73
2023/07/06 05:05:40;;;;;;;;;7.50;7.50;;;;;;;;5036462;28;45382;-73
2023/07/06 05:08:06;;;;;;;;;7.75;5.50;;;;;;;;5036804;28;45384;-73
2023/07/06 05:10:31;;;;;;;;;7.00;5.50;;;;;;;;5034516;28;45423;-73
2023/07/06 05:12:56;;;;;;;;;6.75;5.00;;;;;;;;5033816;28;47152;-73
2023/07/06 05:15:22;;;;;;;;;8.00;8.00;;;;;;;;5035057;28;45502;-73
2023/07/06 05:17:48;;;;;;;;;5.25;5.25;;;;;;;;5035489;28;45378;-73
2023/07/06 05:20:14;;;;;;;;;4.75;3.00;;;;;;;;5035301;28;45439;-73
2023/07/06 05:22:39;;;;;;;;;10.25;9.75;;;;;;;;5035284;28;45431;-73
2023/07/06 05:25:05;;;;;;;;;8.00;7.50;;;;;;;;5035178;28;45648;-73
2023/07/06 05:27:31;;;;;;;;;8.75;8.75;;;;;;;;5035189;28;45317;-72
2023/07/06 05:29:57;;;;;;;;;10.75;10.75;;;;;;;;5034400;28;45322;-73
2023/07/06 05:32:22;;;;;;;;;7.75;7.00;;;;;;;;5034996;28;45628;-73
2023/07/06 05:34:47;;;;;;;;;8.75;8.00;;;;;;;;5034847;28;45414;-71
2023/07/06 05:37:12;;;;;;;;;10.50;9.00;;;;;;;;5034949;28;45386;-73
2023/07/06 05:39:37;;;;;;;;;10.25;7.50;;;;;;;;5034964;28;45289;-73
2023/07/06 05:42:03;;;;;;;;;10.50;7.75;;;;;;;;5034781;28;46331;-73
2023/07/06 05:44:28;;;;;;;;;8.00;6.50;;;;;;;;5033553;28;45376;-73
2023/07/06 05:46:53;;;;;;;;;10.50;8.75;;;;;;;;5035068;28;45423;-71
2023/07/06 05:49:18;;;;;;;;;8.75;7.50;;;;;;;;5035090;28;45381;-73
2023/07/06 05:51:44;;;;;;;;;11.00;10.00;;;;;;;;5035107;28;47007;-73
2023/07/06 05:54:09;;;;;;;;;10.50;9.00;;;;;;;;5034615;28;45394;-73
2023/07/06 05:56:36;;;;;;;;;11.00;8.25;;;;;;;;5034927;28;45395;-73
2023/07/06 05:59:01;;;;;;;;;9.50;7.25;;;;;;;;5034692;28;45419;-73
2023/07/06 06:01:29;;;;;;;;;7.75;6.00;;;;;;;;5034492;28;46815;-73
2023/07/06 06:03:54;;;;;;;;;7.75;7.50;;;;;;;;5034886;28;45307;-73
2023/07/06 06:06:20;;;;;;;;;7.50;6.00;;;;;;;;5034742;28;45327;-73
2023/07/06 06:08:46;;;;;;;;;5.50;5.50;;;;;;;;5034819;28;45353;-73
2023/07/06 06:11:11;;;;;;;;;5.00;4.75;;;;;;;;5034552;28;46311;-73
2023/07/06 06:13:36;;;;;;;;;8.50;8.50;;;;;;;;5034459;28;45299;-73
2023/07/06 06:16:03;;;;;;;;;8.75;6.00;;;;;;;;5035033;28;45331;-73
2023/07/06 06:18:28;;;;;;;;;6.50;6.50;;;;;;;;5034829;28;45424;-73
2023/07/06 06:20:53;;;;;;;;;10.00;8.00;;;;;;;;5034841;28;45365;-73
2023/07/06 06:23:20;;;;;;;;;6.50;6.50;;;;;;;;5035782;28;45501;-73
2023/07/06 06:25:46;;;;;;;;;4.25;3.00;;;;;;;;5038427;28;45715;-73
2023/07/06 06:28:11;;;;;;;;;8.00;5.25;;;;;;;;5037835;28;45420;-73
2023/07/06 06:30:40;;;;;;;;;5.50;5.50;;;;;;;;5037633;28;45446;-72
2023/07/06 06:33:06;;;;;;;;;9.75;8.00;;;;;;;;5037920;28;45491;-71
2023/07/06 06:35:33;;;;;;;;;4.75;4.75;;;;;;;;5036656;28;45392;-71
2023/07/06 06:37:58;;;;;;;;;4.00;3.75;;;;;;;;5037967;28;45384;-71
2023/07/06 06:40:24;;;;;;;;;7.00;4.00;;;;;;;;5037531;28;47154;-72
2023/07/06 06:42:50;;;;;;;;;4.00;4.00;;;;;;;;5037246;28;45379;-71
2023/07/06 06:45:15;;;;;;;;;3.25;3.25;;;;;;;;5036653;28;45377;-73
2023/07/06 06:47:41;;;;;;;;;4.75;3.75;;;;;;;;5037798;28;45404;-71
2023/07/06 06:50:09;;;;;;;;;5.00;4.00;;;;;;;;5037537;28;45947;-71
2023/07/06 06:52:34;;;;;;;;;2.00;2.00;;;;;;;;5037373;28;45383;-71
2023/07/06 06:54:59;;;;;;;;;3.25;3.25;;;;;;;;5036275;28;45337;-71
2023/07/06 06:57:24;;;;;;;;;5.75;3.25;;;;;;;;5037198;28;45268;-72
2023/07/06 06:59:49;;;;;;;;;5.00;4.75;;;;;;;;5036018;28;46276;-73
2023/07/06 07:02:15;;;;;;;;;5.50;5.50;;;;;;;;5040258;28;45323;-73
2023/07/06 07:04:40;;;;;;;;;8.00;6.00;;;;;;;;5039291;28;45524;-73
2023/07/06 07:07:06;;;;;;;;;4.00;2.75;;;;;;;;5037378;28;45318;-74
2023/07/06 07:09:32;;;;;;;;;3.00;3.00;;;;;;;;5037023;28;45432;-73
2023/07/06 07:11:57;;;;;;;;;4.75;3.75;;;;;;;;5036944;28;45347;-73
2023/07/06 07:14:22;;;;;;;;;2.00;2.00;;;;;;;;5036923;28;45467;-73
2023/07/06 07:16:48;;;;;;;;;2.50;2.25;;;;;;;;5035674;28;45359;-72
2023/07/06 07:19:14;;;;;;;;;3.50;3.50;;;;;;;;5036676;28;46363;-73
2023/07/06 07:21:39;;;;;;;;;4.00;4.00;;;;;;;;5036418;28;45412;-73
2023/07/06 07:24:06;;;;;;;;;4.25;2.50;;;;;;;;5036209;28;45580;-73
2023/07/06 07:26:31;;;;;;;;;3.75;3.00;;;;;;;;5036174;28;45439;-73
2023/07/06 07:28:56;;;;;;;;;1.00;1.00;;;;;;;;5035216;28;48598;-73
2023/07/06 07:31:22;;;;;;;;;1.50;1.00;;;;;;;;5036767;28;45459;-73
2023/07/06 07:33:47;;;;;;;;;2.00;2.00;;;;;;;;5035325;28;45461;-73
2023/07/06 07:36:13;;;;;;;;;1.25;1.25;;;;;;;;5035337;28;45417;-73
2023/07/06 07:38:39;;;;;;;;;3.00;1.00;;;;;;;;5035255;28;47238;-73
2023/07/06 07:41:07;;;;;;;;;1.75;1.75;;;;;;;;5035082;28;45382;-72
2023/07/06 07:43:34;;;;;;;;;2.00;2.00;;;;;;;;5036712;28;45514;-72
2023/07/06 07:46:03;;;;;;;;;2.75;2.00;;;;;;;;5036598;28;45405;-72
2023/07/06 07:48:29;;;;;;;;;2.50;1.25;;;;;;;;5035270;28;46335;-72
2023/07/06 07:51:01;;;;;;;;;2.00;2.00;;;;;;;;5036786;28;45343;-72
2023/07/06 07:53:26;;;;;;;;;3.50;2.00;;;;;;;;5036777;28;45395;-72
2023/07/06 07:55:56;;;;;;;;;2.25;2.25;;;;;;;;5036134;28;45361;-72
2023/07/06 07:58:26;;;;;;;;;1.00;1.00;;;;;;;;5036520;28;47350;-73
2023/07/06 08:00:51;;;;;;;;;2.00;2.00;;;;;;;;5036532;28;45475;-72
2023/07/06 08:03:16;;;;;;;;;3.00;3.00;;;;;;;;5036577;28;45374;-72
2023/07/06 08:05:42;;;;;;;;;2.00;2.00;;;;;;;;5036707;28;45265;-72
2023/07/06 08:08:09;;;;;;;;;2.00;2.00;;;;;;;;5035847;28;46307;-73
2023/07/06 08:10:35;;;;;;;;;1.00;1.00;;;;;;;;5036260;28;45470;-72
2023/07/06 08:13:01;;;;;;;;;2.00;1.50;;;;;;;;5036352;28;45523;-72
2023/07/06 08:15:27;;;;;;;;;2.00;2.00;;;;;;;;5036391;28;45416;-72
2023/07/06 08:17:52;;;;;;;;;3.00;3.00;;;;;;;;5035675;28;46383;-72
2023/07/06 08:20:17;;;;;;;;;1.75;1.75;;;;;;;;5034766;28;45701;-72
2023/07/06 08:22:42;;;;;;;;;2.50;2.25;;;;;;;;5036240;28;45500;-72
2023/07/06 08:25:08;;;;;;;;;4.00;3.25;;;;;;;;5036030;28;45367;-72
2023/07/06 08:27:33;;;;;;;;;3.75;2.75;;;;;;;;5034770;28;47541;-73
2023/07/06 08:29:58;;;;;;;;;3.25;2.50;;;;;;;;5035692;28;45411;-71
2023/07/06 08:32:24;;;;;;;;;4.25;4.25;;;;;;;;5036000;28;45388;-72
2023/07/06 08:34:49;;;;;;;;;2.50;2.50;;;;;;;;5036261;28;45550;-73
2023/07/06 08:37:18;;;;;;;;;8.50;4.25;;;;;;;;5035904;28;45396;-72
2023/07/06 08:39:44;;;;;;;;;6.00;4.50;;;;;;;;5018658;28;45780;-72
2023/07/06 08:42:10;;;;;;;;;3.75;3.75;;;;;;;;5036460;28;45394;-72
2023/07/06 08:44:36;;;;;;;;;2.00;2.00;;;;;;;;5036438;28;45433;-73
2023/07/06 08:47:02;;;;;;;;;3.75;3.50;;;;;;;;5035005;28;46005;-73
2023/07/06 08:49:30;;;;;;;;;4.75;4.00;;;;;;;;5035503;28;45399;-72
2023/07/06 08:51:56;;;;;;;;;4.00;3.00;;;;;;;;5035157;28;45458;-73
2023/07/06 08:54:22;;;;;;;;;3.00;3.00;;;;;;;;5035764;28;45336;-72
2023/07/06 08:56:49;;;;;;;;;5.00;4.00;;;;;;;;5035272;28;46495;-72
2023/07/06 08:59:25;;;;;;;;;3.00;3.00;;;;;;;;5035448;28;45366;-73
2023/07/06 09:01:52;;;;;;;;;3.75;3.25;;;;;;;;5035100;28;45487;-73
2023/07/06 09:04:19;;;;;;;;;3.50;2.25;;;;;;;;5035494;28;45388;-72
2023/07/06 09:06:49;;;;;;;;;3.25;3.00;;;;;;;;5033629;28;47323;-73
2023/07/06 09:09:14;;;;;;;;;6.25;4.75;;;;;;;;5035041;28;45311;-73
2023/07/06 09:11:42;;;;;;;;;5.00;4.00;;;;;;;;5035249;28;45360;-73
2023/07/06 09:14:13;;;;;;;;;4.00;3.75;;;;;;;;5035358;28;45534;-72
2023/07/06 09:16:49;;;;;;;;;3.75;3.75;;;;;;;;5033464;28;46956;-73
2023/07/06 09:19:17;;;;;;;;;4.75;3.50;;;;;;;;5035243;28;45334;-72
2023/07/06 09:21:47;;;;;;;;;3.25;3.25;;;;;;;;5033863;28;45688;-73
2023/07/06 09:24:12;;;;;;;;;3.75;3.75;;;;;;;;5035247;28;45375;-73
2023/07/06 09:26:38;;;;;;;;;3.50;3.50;;;;;;;;5035007;28;46240;-73
2023/07/06 09:29:18;;;;;;;;;3.50;2.25;;;;;;;;5033653;28;45423;-73
2023/07/06 09:31:44;;;;;;;;;4.50;3.00;;;;;;;;5035226;28;45413;-73
2023/07/06 09:34:23;;;;;;;;;6.50;5.50;;;;;;;;5034945;28;45420;-73
2023/07/06 09:36:48;;;;;;;;;4.25;3.25;;;;;;;;5034508;28;47203;-73
2023/07/06 09:39:14;;;;;;;;;5.25;4.50;;;;;;;;5034863;28;45287;-74
2023/07/06 09:41:43;;;;;;;;;4.25;3.00;;;;;;;;5035065;28;45376;-74
2023/07/06 09:44:12;;;;;;;;;3.00;3.00;;;;;;;;5034989;28;45483;-73
2023/07/06 09:46:38;;;;;;;;;4.75;4.00;;;;;;;;5034609;28;45590;-74
2023/07/06 09:49:20;;;;;;;;;4.75;3.25;;;;;;;;5034886;28;45481;-74
2023/07/06 09:51:54;;;;;;;;;5.00;4.50;;;;;;;;5034833;28;45469;-73
2023/07/06 09:54:23;;;;;;;;;3.50;3.50;;;;;;;;5034887;28;45574;-74
2023/07/06 09:56:48;;;;;;;;;3.25;3.00;;;;;;;;5034983;28;46252;-74
2023/07/06 09:59:13;;;;;;;;;3.25;3.25;;;;;;;;5038257;28;45341;-74
2023/07/06 10:01:57;;;;;;;;;3.75;3.75;;;;;;;;5038611;28;45181;-73
2023/07/06 10:04:29;;;;;;;;;4.75;3.25;;;;;;;;5038194;28;45223;-73
2023/07/06 10:06:55;;;;;;;;;4.00;4.00;;;;;;;;5037971;28;47131;-74
2023/07/06 10:09:23;;;;;;;;;1.25;1.25;;;;;;;;5038108;28;45685;-74
2023/07/06 10:11:53;;;;;;;;;2.25;2.25;;;;;;;;5038208;28;45458;-74
2023/07/06 10:14:25;;;;;;;;;4.25;3.25;;;;;;;;5038183;28;45422;-74
2023/07/06 10:17:07;;;;;;;;;3.25;3.25;;;;;;;;5037712;28;45977;-73
2023/07/06 10:19:45;;;;;;;;;4.00;3.50;;;;;;;;5037426;28;45559;-73
2023/07/06 10:22:31;;;;;;;;;2.25;2.25;;;;;;;;5038030;28;45299;-73
2023/07/06 10:25:15;;;;;;;;;3.75;3.75;;;;;;;;4955781;28;45495;-73
2023/07/06 10:27:45;;;;;;;;;2.00;2.00;;;;;;;;4955702;28;45614;-74
2023/07/06 10:30:19;;;;;;;;;2.75;2.75;;;;;;;;4955930;28;45543;-73
2023/07/06 10:32:46;;;;;;;;;3.00;3.00;;;;;;;;4955735;28;45532;-73
2023/07/06 10:35:14;;;;;;;;;2.50;2.50;;;;;;;;4955576;28;45544;-73
2023/07/06 10:37:41;;;;;;;;;4.00;3.50;;;;;;;;4955513;28;46166;-73
2023/07/06 10:40:37;;;;;;;;;2.00;2.00;;;;;;;;4956069;28;45469;-73
2023/07/06 10:43:08;;;;;;;;;3.75;3.75;;;;;;;;4944717;28;45567;-74
2023/07/06 10:45:34;;;;;;;;;2.00;2.00;;;;;;;;4955398;28;45612;-74
2023/07/06 10:48:35;;;;;;;;;5.00;2.00;;;;;;;;4955708;28;45932;-74
2023/07/06 10:51:15;;;;;;;;;4.00;4.00;;;;;;;;4898346;29;45493;-73
2023/07/06 10:53:41;;;;;;;;;3.00;3.00;;;;;;;;4898813;29;45248;-73
2023/07/06 10:56:22;;;;;;;;;3.50;3.50;;;;;;;;4898623;29;45561;-73
2023/07/06 10:58:54;;;;;;;;;3.00;3.00;;;;;;;;4898438;29;45542;-73
2023/07/06 11:01:20;;;;;;;;;4.75;3.75;;;;;;;;4916992;28;45478;-73
2023/07/06 11:03:46;;;;;;;;;3.00;3.00;;;;;;;;4995190;28;45497;-74
2023/07/06 11:06:14;;;;;;;;;4.50;4.50;;;;;;;;4995043;28;45429;-73
2023/07/06 11:08:58;;;;;;;;;4.25;3.75;;;;;;;;4993948;28;47134;-73
2023/07/06 11:11:26;;;;;;;;;3.00;2.00;;;;;;;;4995299;28;45531;-73
2023/07/06 11:13:52;;;;;;;;;3.00;3.00;;;;;;;;4975534;28;45393;-73
2023/07/06 11:16:22;;;;;;;;;2.25;2.00;;;;;;;;4959439;28;45381;-73
2023/07/06 11:18:51;;;;;;;;;4.75;2.75;;;;;;;;4975205;28;46202;-74
2023/07/06 11:21:16;;;;;;;;;2.00;2.00;;;;;;;;4959117;28;45322;-74
2023/07/06 11:23:48;;;;;;;;;3.00;3.00;;;;;;;;4975440;28;45448;-74
2023/07/06 11:26:32;;;;;;;;;4.00;4.00;;;;;;;;5016025;28;45618;-74
2023/07/06 11:28:57;;;;;;;;;4.00;3.25;;;;;;;;5016975;28;46133;-73
2023/07/06 11:31:33;;;;;;;;;2.00;2.00;;;;;;;;5030972;28;46255;-74
2023/07/06 11:34:07;;;;;;;;;0.25;0.25;;;;;;;;5036913;28;45339;-74
2023/07/06 11:36:43;;;;;;;;;3.00;2.00;;;;;;;;5036915;28;45443;-74
2023/07/06 11:39:15;;;;;;;;;2.75;2.75;;;;;;;;5032373;28;45470;-74
2023/07/06 11:41:53;;;;;;;;;3.50;3.50;;;;;;;;5036578;28;46114;-74
2023/07/06 11:44:26;;;;;;;;;4.00;3.00;;;;;;;;5035583;28;45457;-74
2023/07/06 11:46:55;;;;;;;;;3.00;3.00;;;;;;;;5036345;28;45435;-74
2023/07/06 11:49:40;;;;;;;;;2.00;2.00;;;;;;;;5036005;28;45636;-73
2023/07/06 11:52:09;;;;;;;;;1.50;1.50;;;;;;;;5035970;28;45460;-74
2023/07/06 11:54:43;;;;;;;;;1.75;1.75;;;;;;;;5036299;28;45357;-73
2023/07/06 12:02:56;;;;;;;;;2.25;2.25;;;;;;;;5036232;28;45465;-74
2023/07/06 12:05:24;;;;;;;;;3.00;3.00;;;;;;;;5036099;28;45246;-73
2023/07/06 12:07:56;;;;;;;;;3.00;2.00;;;;;;;;5036105;28;45468;-73
2023/07/06 12:10:22;;;;;;;;;2.00;2.00;;;;;;;;5036082;28;46299;-73
2023/07/06 12:12:47;;;;;;;;;3.25;3.25;;;;;;;;5035839;28;45564;-74
2023/07/06 12:15:12;;;;;;;;;2.00;2.00;;;;;;;;5028529;28;45760;-74
2023/07/06 12:17:38;;;;;;;;;3.50;1.50;;;;;;;;5048954;28;45316;-74
2023/07/06 12:20:08;;;;;;;;;2.00;2.00;;;;;;;;5038748;28;45363;-75
2023/07/06 12:22:34;;;;;;;;;1.00;1.00;;;;;;;;5024368;28;45320;-74
2023/07/06 12:24:59;;;;;;;;;3.00;2.25;;;;;;;;5046630;28;45262;-74
2023/07/06 12:27:26;;;;;;;;;1.00;1.00;;;;;;;;5047188;28;45272;-75
2023/07/06 12:30:03;;;;;;;;;1.00;1.00;;;;;;;;5040535;28;46096;-74
2023/07/06 12:32:29;;;;;;;;;1.25;1.25;;;;;;;;5021297;28;45449;-74
2023/07/06 12:34:55;;;;;;;;;1.00;1.00;;;;;;;;5048788;28;45413;-74
2023/07/06 12:37:22;;;;;;;;;1.50;1.50;;;;;;;;5046242;28;45366;-74
2023/07/06 12:39:48;;;;;;;;;1.00;1.00;;;;;;;;5039797;28;46203;-74
2023/07/06 12:42:15;;;;;;;;;1.00;1.00;;;;;;;;5052923;28;45624;-75
2023/07/06 12:44:43;;;;;;;;;1.00;1.00;;;;;;;;5039818;28;45458;-75
2023/07/06 12:47:24;;;;;;;;;1.25;1.25;;;;;;;;5047505;28;45325;-75
2023/07/06 12:49:50;;;;;;;;;2.00;2.00;;;;;;;;5050073;28;45449;-76
2023/07/06 12:52:17;;;;;;;;;3.25;2.75;;;;;;;;5044966;28;45329;-76
2023/07/06 12:54:52;;;;;;;;;1.75;1.75;;;;;;;;5041338;28;45444;-75
2023/07/06 12:57:30;;;;;;;;;1.00;1.00;;;;;;;;5045004;28;45315;-75
2023/07/06 12:59:57;;;;;;;;;1.75;1.75;;;;;;;;5034434;28;45589;-76
2023/07/06 13:02:24;;;;;;;;;6.00;6.00;;;;;;;;5051480;28;45494;-76
2023/07/06 13:04:50;;;;;;;;;2.00;2.00;;;;;;;;5053123;28;45390;-76
2023/07/06 13:07:15;;;;;;;;;2.00;2.00;;;;;;;;5061009;28;28489;-75
2023/07/06 13:09:41;;;;;;;;;3.75;2.00;;;;;;;;5043821;28;45375;-76
2023/07/06 13:12:09;;;;;;;;;1.00;1.00;;;;;;;;5033696;28;45611;-76
2023/07/06 13:14:38;;;;;;;;;5.50;2.00;;;;;;;;5054930;28;45331;-76
2023/07/06 13:17:05;;;;;;;;;1.50;1.00;;;;;;;;5045262;28;45678;-75
2023/07/06 13:19:33;;;;;;;;;1.50;1.50;;;;;;;;5035352;28;46492;-77
2023/07/06 13:21:58;;;;;;;;;1.00;1.00;;;;;;;;5050326;28;45297;-75
2023/07/06 13:24:24;;;;;;;;;1.25;1.25;;;;;;;;5035628;28;45450;-76
2023/07/06 13:26:50;;;;;;;;;2.00;1.00;;;;;;;;5048357;28;45558;-75
2023/07/06 13:29:16;;;;;;;;;1.75;1.75;;;;;;;;5043968;28;46434;-75
2023/07/06 13:31:43;;;;;;;;;3.00;2.00;;;;;;;;5050196;28;45420;-76
2023/07/06 13:34:09;;;;;;;;;2.25;2.25;;;;;;;;5038059;28;45427;-76
2023/07/06 13:36:34;;;;;;;;;2.25;2.25;;;;;;;;5050236;28;45311;-78
2023/07/06 13:38:59;;;;;;;;;1.00;1.00;;;;;;;;5033166;28;46365;-76
2023/07/06 13:41:28;;;;;;;;;0.75;0.75;;;;;;;;5034442;28;45386;-76
2023/07/06 13:43:54;;;;;;;;;1.00;1.00;;;;;;;;5049168;28;45642;-76
2023/07/06 13:46:20;;;;;;;;;2.25;2.25;;;;;;;;5036327;28;45416;-77
2023/07/06 13:48:45;;;;;;;;;1.75;1.75;;;;;;;;5040726;28;46099;-75
2023/07/06 13:51:12;;;;;;;;;1.00;1.00;;;;;;;;5045078;28;45498;-75
2023/07/06 13:53:39;;;;;;;;;2.00;2.00;;;;;;;;5047705;28;45578;-76
2023/07/06 13:56:04;;;;;;;;;1.00;1.00;;;;;;;;5036892;28;45530;-75
2023/07/06 13:58:30;;;;;;;;;1.00;1.00;;;;;;;;5050087;28;45407;-75
2023/07/06 14:00:58;;;;;;;;;1.00;1.00;;;;;;;;5041315;28;45455;-75
2023/07/06 14:03:27;;;;;;;;;2.00;1.50;;;;;;;;5043291;28;45411;-75
2023/07/06 14:05:53;;;;;;;;;2.75;1.25;;;;;;;;5050048;28;45546;-75
2023/07/06 14:08:21;;;;;;;;;2.00;2.00;;;;;;;;5037078;28;46323;-74
2023/07/06 14:10:48;;;;;;;;;1.00;1.00;;;;;;;;5046631;28;45422;-74
2023/07/06 14:13:13;;;;;;;;;1.00;1.00;;;;;;;;5042076;28;45337;-75
2023/07/06 14:15:40;;;;;;;;;2.00;1.50;;;;;;;;5040912;28;45622;-75
2023/07/06 14:18:07;;;;;;;;;2.00;2.00;;;;;;;;5050054;28;45416;-75
2023/07/06 14:20:34;;;;;;;;;1.50;1.50;;;;;;;;5037565;28;45545;-75
2023/07/06 14:22:59;;;;;;;;;1.50;1.50;;;;;;;;5046284;28;45379;-73
2023/07/06 14:25:25;;;;;;;;;3.00;2.00;;;;;;;;5044438;28;45581;-72
2023/07/06 14:27:54;;;;;;;;;2.00;1.00;;;;;;;;5038785;28;47099;-72
2023/07/06 14:30:21;;;;;;;;;1.00;1.00;;;;;;;;5048776;28;45497;-73
2023/07/06 14:32:47;;;;;;;;;1.25;1.25;;;;;;;;5055591;28;45396;-73
2023/07/06 14:35:13;;;;;;;;;2.00;2.00;;;;;;;;5058906;28;27894;-72
2023/07/06 14:37:39;;;;;;;;;2.00;2.00;;;;;;;;5044213;28;45348;-73
2023/07/06 14:40:06;;;;;;;;;2.00;2.00;;;;;;;;5048504;28;45488;-73
2023/07/06 14:42:31;;;;;;;;;3.00;1.00;;;;;;;;5037321;28;45369;-73
2023/07/06 14:44:56;;;;;;;;;4.00;3.00;;;;;;;;5047904;28;45502;-73
2023/07/06 14:47:22;;;;;;;;;1.75;1.75;;;;;;;;5047617;28;46042;-73
2023/07/06 14:49:47;;;;;;;;;3.00;1.75;;;;;;;;5041417;28;45364;-73
2023/07/06 14:52:12;;;;;;;;;1.75;1.75;;;;;;;;5046275;28;45415;-72